sensor_id;sensor_type;location;lat;lon;timestamp;temperature;humidity
10566;DHT22;5331;48.148;16.326;2023-04-03T00:00:35;5.70;1.00
10566;DHT22;5331;48.148;16.326;2023-04-03T00:03:02;5.70;1.00
10566;DHT22;5331;48.148;16.326;2023-04-03T00:05:29;5.70;1.00
10566;DHT22;5331;48.148;16.326;2023-04-03T00:07:56;5.80;1.00
10566;DHT22;5331;48.148;16.326;2023-04-03T00:10:24;5.80;1.00
10566;DHT22;5331;48.148;16.326;2023-04-03T00:12:51;5.80;1.00
10566;DHT22;5331;48.148;16.326;2023-04-03T00:15:19;5.80;1.00
10566;DHT22;5331;48.148;16.326;2023-04-03T00:17:46;5.80;1.00
10566;DHT22;5331;48.148;16.326;2023-04-03T00:20:13;5.80;1.00
10566;DHT22;5331;48.148;16.326;2023-04-03T00:22:40;5.70;1.00
10566;DHT22;5331;48.148;16.326;2023-04-03T00:25:08;5.70;1.00
10566;DHT22;5331;48.148;16.326;2023-04-03T00:27:37;5.80;1.00
10566;DHT22;5331;48.148;16.326;2023-04-03T00:30:07;5.80;1.00
10566;DHT22;5331;48.148;16.326;2023-04-03T00:32:34;5.70;1.00
10566;DHT22;5331;48.148;16.326;2023-04-03T00:35:01;5.70;1.00
10566;DHT22;5331;48.148;16.326;2023-04-03T00:37:28;5.70;1.00
10566;DHT22;5331;48.148;16.326;2023-04-03T00:39:56;5.70;1.00
10566;DHT22;5331;48.148;16.326;2023-04-03T00:42:23;5.60;1.00
10566;DHT22;5331;48.148;16.326;2023-04-03T00:45:24;5.70;1.00
10566;DHT22;5331;48.148;16.326;2023-04-03T00:47:51;5.70;1.00
10566;DHT22;5331;48.148;16.326;2023-04-03T00:50:19;5.70;1.00
10566;DHT22;5331;48.148;16.326;2023-04-03T00:52:46;5.60;1.00
10566;DHT22;5331;48.148;16.326;2023-04-03T00:55:15;5.60;1.00
10566;DHT22;5331;48.148;16.326;2023-04-03T00:57:42;5.70;1.00
10566;DHT22;5331;48.148;16.326;2023-04-03T01:00:13;5.60;1.00
10566;DHT22;5331;48.148;16.326;2023-04-03T01:02:42;5.60;1.00
10566;DHT22;5331;48.148;16.326;2023-04-03T01:05:10;5.50;1.00
10566;DHT22;5331;48.148;16.326;2023-04-03T01:07:38;5.60;1.00
10566;DHT22;5331;48.148;16.326;2023-04-03T01:10:09;5.60;1.00
10566;DHT22;5331;48.148;16.326;2023-04-03T01:12:38;5.60;1.00
10566;DHT22;5331;48.148;16.326;2023-04-03T01:15:07;5.50;1.00
10566;DHT22;5331;48.148;16.326;2023-04-03T01:17:36;5.50;1.00
10566;DHT22;5331;48.148;16.326;2023-04-03T01:20:45;5.50;1.00
10566;DHT22;5331;48.148;16.326;2023-04-03T01:23:37;5.50;1.00
10566;DHT22;5331;48.148;16.326;2023-04-03T01:26:07;5.50;1.00
10566;DHT22;5331;48.148;16.326;2023-04-03T01:28:36;5.60;1.00
10566;DHT22;5331;48.148;16.326;2023-04-03T01:31:09;5.50;1.00
10566;DHT22;5331;48.148;16.326;2023-04-03T01:33:39;5.60;1.00
10566;DHT22;5331;48.148;16.326;2023-04-03T01:36:07;5.50;1.00
10566;DHT22;5331;48.148;16.326;2023-04-03T01:38:34;5.50;1.00
10566;DHT22;5331;48.148;16.326;2023-04-03T01:41:01;5.50;1.00
10566;DHT22;5331;48.148;16.326;2023-04-03T01:43:28;5.50;1.00
10566;DHT22;5331;48.148;16.326;2023-04-03T01:45:55;5.40;1.00
10566;DHT22;5331;48.148;16.326;2023-04-03T01:48:22;5.40;1.00
10566;DHT22;5331;48.148;16.326;2023-04-03T01:50:51;5.40;1.00
10566;DHT22;5331;48.148;16.326;2023-04-03T01:53:18;5.40;1.00
10566;DHT22;5331;48.148;16.326;2023-04-03T01:55:45;5.50;1.00
10566;DHT22;5331;48.148;16.326;2023-04-03T01:58:12;5.40;1.00
10566;DHT22;5331;48.148;16.326;2023-04-03T02:00:39;5.50;1.00
10566;DHT22;5331;48.148;16.326;2023-04-03T02:03:06;5.40;1.00
10566;DHT22;5331;48.148;16.326;2023-04-03T02:05:33;5.40;1.00
10566;DHT22;5331;48.148;16.326;2023-04-03T02:08:02;5.50;1.00
10566;DHT22;5331;48.148;16.326;2023-04-03T02:10:29;5.50;1.00
10566;DHT22;5331;48.148;16.326;2023-04-03T02:12:56;5.50;1.00
10566;DHT22;5331;48.148;16.326;2023-04-03T02:15:23;5.40;1.00
10566;DHT22;5331;48.148;16.326;2023-04-03T02:17:51;5.50;1.00
10566;DHT22;5331;48.148;16.326;2023-04-03T02:20:18;5.40;1.00
10566;DHT22;5331;48.148;16.326;2023-04-03T02:22:45;5.50;1.00
10566;DHT22;5331;48.148;16.326;2023-04-03T02:25:14;5.40;1.00
10566;DHT22;5331;48.148;16.326;2023-04-03T02:27:43;5.40;1.00
10566;DHT22;5331;48.148;16.326;2023-04-03T02:30:10;5.50;1.00
10566;DHT22;5331;48.148;16.326;2023-04-03T02:32:38;5.40;1.00
10566;DHT22;5331;48.148;16.326;2023-04-03T02:35:07;5.50;1.00
10566;DHT22;5331;48.148;16.326;2023-04-03T02:37:34;5.50;1.00
10566;DHT22;5331;48.148;16.326;2023-04-03T02:40:01;5.50;1.00
10566;DHT22;5331;48.148;16.326;2023-04-03T02:42:30;5.50;1.00
10566;DHT22;5331;48.148;16.326;2023-04-03T02:44:57;5.50;1.00
10566;DHT22;5331;48.148;16.326;2023-04-03T02:47:26;5.40;1.00
10566;DHT22;5331;48.148;16.326;2023-04-03T02:49:53;5.40;1.00
10566;DHT22;5331;48.148;16.326;2023-04-03T02:52:20;5.50;1.00
10566;DHT22;5331;48.148;16.326;2023-04-03T02:54:47;5.40;1.00
10566;DHT22;5331;48.148;16.326;2023-04-03T02:57:14;5.40;1.00
10566;DHT22;5331;48.148;16.326;2023-04-03T02:59:42;5.40;1.00
10566;DHT22;5331;48.148;16.326;2023-04-03T03:02:10;5.40;1.00
10566;DHT22;5331;48.148;16.326;2023-04-03T03:04:37;5.50;1.00
10566;DHT22;5331;48.148;16.326;2023-04-03T03:07:04;5.50;1.00
10566;DHT22;5331;48.148;16.326;2023-04-03T03:09:32;5.50;1.00
10566;DHT22;5331;48.148;16.326;2023-04-03T03:11:59;5.40;1.00
10566;DHT22;5331;48.148;16.326;2023-04-03T03:14:26;5.40;1.00
10566;DHT22;5331;48.148;16.326;2023-04-03T03:16:54;5.40;1.00
10566;DHT22;5331;48.148;16.326;2023-04-03T03:19:21;5.40;1.00
10566;DHT22;5331;48.148;16.326;2023-04-03T03:21:48;5.30;1.00
10566;DHT22;5331;48.148;16.326;2023-04-03T03:24:15;5.40;1.00
10566;DHT22;5331;48.148;16.326;2023-04-03T03:26:43;5.40;1.00
10566;DHT22;5331;48.148;16.326;2023-04-03T03:29:10;5.40;1.00
10566;DHT22;5331;48.148;16.326;2023-04-03T03:31:37;5.40;1.00
10566;DHT22;5331;48.148;16.326;2023-04-03T03:34:05;5.40;1.00
10566;DHT22;5331;48.148;16.326;2023-04-03T03:36:32;5.40;1.00
10566;DHT22;5331;48.148;16.326;2023-04-03T03:39:00;5.40;1.00
10566;DHT22;5331;48.148;16.326;2023-04-03T03:41:27;5.40;1.00
10566;DHT22;5331;48.148;16.326;2023-04-03T03:43:54;5.40;1.00
10566;DHT22;5331;48.148;16.326;2023-04-03T03:46:21;5.40;1.00
10566;DHT22;5331;48.148;16.326;2023-04-03T03:48:48;5.40;1.00
10566;DHT22;5331;48.148;16.326;2023-04-03T03:51:16;5.40;1.00
10566;DHT22;5331;48.148;16.326;2023-04-03T03:53:43;5.40;1.00
10566;DHT22;5331;48.148;16.326;2023-04-03T03:56:11;5.30;1.00
10566;DHT22;5331;48.148;16.326;2023-04-03T03:58:38;5.40;1.00
10566;DHT22;5331;48.148;16.326;2023-04-03T04:01:06;5.40;1.00
10566;DHT22;5331;48.148;16.326;2023-04-03T04:03:33;5.40;1.00
10566;DHT22;5331;48.148;16.326;2023-04-03T04:06:00;5.40;1.00
10566;DHT22;5331;48.148;16.326;2023-04-03T04:08:29;5.30;1.00
10566;DHT22;5331;48.148;16.326;2023-04-03T04:13:23;5.40;1.00
10566;DHT22;5331;48.148;16.326;2023-04-03T04:15:51;5.40;1.00
10566;DHT22;5331;48.148;16.326;2023-04-03T04:18:18;5.40;1.00
10566;DHT22;5331;48.148;16.326;2023-04-03T04:20:45;5.40;1.00
10566;DHT22;5331;48.148;16.326;2023-04-03T04:23:12;5.40;1.00
10566;DHT22;5331;48.148;16.326;2023-04-03T04:25:41;5.30;1.00
10566;DHT22;5331;48.148;16.326;2023-04-03T04:28:10;5.30;1.00
10566;DHT22;5331;48.148;16.326;2023-04-03T04:30:37;5.30;1.00
10566;DHT22;5331;48.148;16.326;2023-04-03T04:33:05;5.30;1.00
10566;DHT22;5331;48.148;16.326;2023-04-03T04:35:32;5.30;1.00
10566;DHT22;5331;48.148;16.326;2023-04-03T04:37:59;5.30;1.00
10566;DHT22;5331;48.148;16.326;2023-04-03T04:40:27;5.20;1.00
10566;DHT22;5331;48.148;16.326;2023-04-03T04:42:55;5.30;1.00
10566;DHT22;5331;48.148;16.326;2023-04-03T04:45:22;5.20;1.00
10566;DHT22;5331;48.148;16.326;2023-04-03T04:47:49;5.20;1.00
10566;DHT22;5331;48.148;16.326;2023-04-03T04:50:18;5.20;1.00
10566;DHT22;5331;48.148;16.326;2023-04-03T04:52:45;5.20;1.00
10566;DHT22;5331;48.148;16.326;2023-04-03T04:55:12;5.20;1.00
10566;DHT22;5331;48.148;16.326;2023-04-03T04:57:39;5.20;1.00
10566;DHT22;5331;48.148;16.326;2023-04-03T05:00:09;5.20;1.00
10566;DHT22;5331;48.148;16.326;2023-04-03T05:02:36;5.20;1.00
10566;DHT22;5331;48.148;16.326;2023-04-03T05:05:03;5.20;1.00
10566;DHT22;5331;48.148;16.326;2023-04-03T05:07:31;5.20;1.00
10566;DHT22;5331;48.148;16.326;2023-04-03T05:09:58;5.10;1.00
10566;DHT22;5331;48.148;16.326;2023-04-03T05:12:25;5.10;1.00
10566;DHT22;5331;48.148;16.326;2023-04-03T05:14:52;5.10;1.00
10566;DHT22;5331;48.148;16.326;2023-04-03T05:17:20;5.20;1.00
10566;DHT22;5331;48.148;16.326;2023-04-03T05:19:47;5.20;1.00
10566;DHT22;5331;48.148;16.326;2023-04-03T05:22:14;5.10;1.00
10566;DHT22;5331;48.148;16.326;2023-04-03T05:24:41;5.10;1.00
10566;DHT22;5331;48.148;16.326;2023-04-03T05:27:08;5.10;1.00
10566;DHT22;5331;48.148;16.326;2023-04-03T05:29:36;5.10;1.00
10566;DHT22;5331;48.148;16.326;2023-04-03T05:32:03;5.10;1.00
10566;DHT22;5331;48.148;16.326;2023-04-03T05:34:32;5.10;1.00
10566;DHT22;5331;48.148;16.326;2023-04-03T05:36:59;5.20;1.00
10566;DHT22;5331;48.148;16.326;2023-04-03T05:39:26;5.10;1.00
10566;DHT22;5331;48.148;16.326;2023-04-03T05:41:53;5.10;1.00
10566;DHT22;5331;48.148;16.326;2023-04-03T05:44:20;5.10;1.00
10566;DHT22;5331;48.148;16.326;2023-04-03T05:46:47;5.10;1.00
10566;DHT22;5331;48.148;16.326;2023-04-03T05:49:14;5.20;1.00
10566;DHT22;5331;48.148;16.326;2023-04-03T05:51:43;5.20;1.00
10566;DHT22;5331;48.148;16.326;2023-04-03T05:54:16;5.10;1.00
10566;DHT22;5331;48.148;16.326;2023-04-03T05:56:44;5.20;1.00
10566;DHT22;5331;48.148;16.326;2023-04-03T05:59:11;5.20;1.00
10566;DHT22;5331;48.148;16.326;2023-04-03T06:01:38;5.30;1.00
10566;DHT22;5331;48.148;16.326;2023-04-03T06:04:05;5.20;1.00
10566;DHT22;5331;48.148;16.326;2023-04-03T06:06:46;5.20;1.00
10566;DHT22;5331;48.148;16.326;2023-04-03T06:09:14;5.20;1.00
10566;DHT22;5331;48.148;16.326;2023-04-03T06:11:42;5.20;1.00
10566;DHT22;5331;48.148;16.326;2023-04-03T06:14:09;5.20;1.00
10566;DHT22;5331;48.148;16.326;2023-04-03T06:16:37;5.20;1.00
10566;DHT22;5331;48.148;16.326;2023-04-03T06:19:05;5.20;1.00
10566;DHT22;5331;48.148;16.326;2023-04-03T06:21:32;5.20;1.00
10566;DHT22;5331;48.148;16.326;2023-04-03T06:24:00;5.20;1.00
10566;DHT22;5331;48.148;16.326;2023-04-03T06:26:28;5.20;1.00
10566;DHT22;5331;48.148;16.326;2023-04-03T06:28:55;5.30;1.00
10566;DHT22;5331;48.148;16.326;2023-04-03T06:31:22;5.30;1.00
10566;DHT22;5331;48.148;16.326;2023-04-03T06:33:49;5.30;1.00
10566;DHT22;5331;48.148;16.326;2023-04-03T06:36:18;5.30;1.00
10566;DHT22;5331;48.148;16.326;2023-04-03T06:38:47;5.20;1.00
10566;DHT22;5331;48.148;16.326;2023-04-03T06:41:15;5.20;1.00
10566;DHT22;5331;48.148;16.326;2023-04-03T06:43:43;5.20;1.00
10566;DHT22;5331;48.148;16.326;2023-04-03T06:46:14;5.20;1.00
10566;DHT22;5331;48.148;16.326;2023-04-03T06:48:42;5.10;1.00
10566;DHT22;5331;48.148;16.326;2023-04-03T06:51:17;5.20;1.00
10566;DHT22;5331;48.148;16.326;2023-04-03T06:53:45;5.20;1.00
10566;DHT22;5331;48.148;16.326;2023-04-03T06:56:12;5.20;1.00
10566;DHT22;5331;48.148;16.326;2023-04-03T06:58:41;5.20;1.00
10566;DHT22;5331;48.148;16.326;2023-04-03T07:01:08;5.20;1.00
10566;DHT22;5331;48.148;16.326;2023-04-03T07:03:36;5.20;1.00
10566;DHT22;5331;48.148;16.326;2023-04-03T07:06:03;5.20;1.00
10566;DHT22;5331;48.148;16.326;2023-04-03T07:08:31;5.20;1.00
10566;DHT22;5331;48.148;16.326;2023-04-03T07:10:58;5.10;1.00
10566;DHT22;5331;48.148;16.326;2023-04-03T07:13:26;5.20;1.00
10566;DHT22;5331;48.148;16.326;2023-04-03T07:15:55;5.20;1.00
10566;DHT22;5331;48.148;16.326;2023-04-03T07:18:22;5.20;1.00
10566;DHT22;5331;48.148;16.326;2023-04-03T07:20:50;5.20;1.00
10566;DHT22;5331;48.148;16.326;2023-04-03T07:23:17;5.20;1.00
10566;DHT22;5331;48.148;16.326;2023-04-03T07:25:44;5.20;1.00
10566;DHT22;5331;48.148;16.326;2023-04-03T07:28:12;5.20;1.00
10566;DHT22;5331;48.148;16.326;2023-04-03T07:30:43;5.30;1.00
10566;DHT22;5331;48.148;16.326;2023-04-03T07:33:13;5.40;1.00
10566;DHT22;5331;48.148;16.326;2023-04-03T07:35:40;5.50;1.00
10566;DHT22;5331;48.148;16.326;2023-04-03T07:38:08;5.60;1.00
10566;DHT22;5331;48.148;16.326;2023-04-03T07:40:35;5.70;1.00
10566;DHT22;5331;48.148;16.326;2023-04-03T07:43:03;5.70;1.00
10566;DHT22;5331;48.148;16.326;2023-04-03T07:45:31;5.70;1.00
10566;DHT22;5331;48.148;16.326;2023-04-03T07:47:59;5.90;1.00
10566;DHT22;5331;48.148;16.326;2023-04-03T07:50:28;6.10;1.00
10566;DHT22;5331;48.148;16.326;2023-04-03T07:52:56;6.40;1.00
10566;DHT22;5331;48.148;16.326;2023-04-03T07:55:23;6.40;1.00
10566;DHT22;5331;48.148;16.326;2023-04-03T07:57:50;7.00;1.00
10566;DHT22;5331;48.148;16.326;2023-04-03T08:00:18;7.90;1.00
10566;DHT22;5331;48.148;16.326;2023-04-03T08:02:46;8.40;1.00
10566;DHT22;5331;48.148;16.326;2023-04-03T08:05:16;8.20;1.00
10566;DHT22;5331;48.148;16.326;2023-04-03T08:07:45;8.00;1.00
10566;DHT22;5331;48.148;16.326;2023-04-03T08:10:12;8.20;1.00
10566;DHT22;5331;48.148;16.326;2023-04-03T08:12:39;8.60;1.00
10566;DHT22;5331;48.148;16.326;2023-04-03T08:15:07;8.70;1.00
10566;DHT22;5331;48.148;16.326;2023-04-03T08:17:35;9.10;1.00
10566;DHT22;5331;48.148;16.326;2023-04-03T08:20:03;9.50;1.00
10566;DHT22;5331;48.148;16.326;2023-04-03T08:22:30;9.70;1.00
10566;DHT22;5331;48.148;16.326;2023-04-03T08:24:58;9.60;1.00
10566;DHT22;5331;48.148;16.326;2023-04-03T08:27:26;9.40;1.00
10566;DHT22;5331;48.148;16.326;2023-04-03T08:29:54;9.00;1.00
10566;DHT22;5331;48.148;16.326;2023-04-03T08:32:21;8.90;1.00
10566;DHT22;5331;48.148;16.326;2023-04-03T08:34:48;9.00;1.00
10566;DHT22;5331;48.148;16.326;2023-04-03T08:37:15;9.10;1.00
10566;DHT22;5331;48.148;16.326;2023-04-03T08:39:42;9.00;1.00
10566;DHT22;5331;48.148;16.326;2023-04-03T08:42:16;8.60;1.00
10566;DHT22;5331;48.148;16.326;2023-04-03T08:44:49;8.30;1.00
10566;DHT22;5331;48.148;16.326;2023-04-03T08:47:22;7.60;1.00
10566;DHT22;5331;48.148;16.326;2023-04-03T08:49:53;7.30;1.00
10566;DHT22;5331;48.148;16.326;2023-04-03T08:52:26;7.80;1.00
10566;DHT22;5331;48.148;16.326;2023-04-03T08:54:57;8.40;1.00
10566;DHT22;5331;48.148;16.326;2023-04-03T08:57:30;7.80;1.00
10566;DHT22;5331;48.148;16.326;2023-04-03T09:00:00;7.40;1.00
10566;DHT22;5331;48.148;16.326;2023-04-03T09:02:32;7.30;1.00
10566;DHT22;5331;48.148;16.326;2023-04-03T09:05:05;7.30;1.00
10566;DHT22;5331;48.148;16.326;2023-04-03T09:07:36;7.90;1.00
10566;DHT22;5331;48.148;16.326;2023-04-03T09:10:06;8.70;1.00
10566;DHT22;5331;48.148;16.326;2023-04-03T09:12:38;9.00;1.00
10566;DHT22;5331;48.148;16.326;2023-04-03T09:15:15;8.00;1.00
10566;DHT22;5331;48.148;16.326;2023-04-03T09:17:53;8.00;1.00
10566;DHT22;5331;48.148;16.326;2023-04-03T09:20:25;8.40;1.00
10566;DHT22;5331;48.148;16.326;2023-04-03T09:22:54;8.30;1.00
10566;DHT22;5331;48.148;16.326;2023-04-03T09:25:22;8.20;1.00
10566;DHT22;5331;48.148;16.326;2023-04-03T09:27:52;8.10;1.00
10566;DHT22;5331;48.148;16.326;2023-04-03T09:30:21;7.70;1.00
10566;DHT22;5331;48.148;16.326;2023-04-03T09:32:51;7.50;1.00
10566;DHT22;5331;48.148;16.326;2023-04-03T09:35:24;7.50;1.00
10566;DHT22;5331;48.148;16.326;2023-04-03T09:37:52;7.30;1.00
10566;DHT22;5331;48.148;16.326;2023-04-03T09:40:31;7.20;1.00
10566;DHT22;5331;48.148;16.326;2023-04-03T09:43:08;6.80;1.00
10566;DHT22;5331;48.148;16.326;2023-04-03T09:45:47;6.70;1.00
10566;DHT22;5331;48.148;16.326;2023-04-03T09:48:16;6.80;1.00
10566;DHT22;5331;48.148;16.326;2023-04-03T09:50:58;7.10;1.00
10566;DHT22;5331;48.148;16.326;2023-04-03T09:53:33;7.20;1.00
10566;DHT22;5331;48.148;16.326;2023-04-03T09:56:02;7.20;1.00
10566;DHT22;5331;48.148;16.326;2023-04-03T09:58:35;7.30;1.00
10566;DHT22;5331;48.148;16.326;2023-04-03T10:01:04;7.10;1.00
10566;DHT22;5331;48.148;16.326;2023-04-03T10:03:33;7.30;1.00
10566;DHT22;5331;48.148;16.326;2023-04-03T10:06:03;7.30;1.00
10566;DHT22;5331;48.148;16.326;2023-04-03T10:08:31;6.70;1.00
10566;DHT22;5331;48.148;16.326;2023-04-03T10:11:12;6.50;1.00
10566;DHT22;5331;48.148;16.326;2023-04-03T10:13:57;6.30;1.00
10566;DHT22;5331;48.148;16.326;2023-04-03T10:16:29;6.20;1.00
10566;DHT22;5331;48.148;16.326;2023-04-03T10:19:25;6.20;1.00
10566;DHT22;5331;48.148;16.326;2023-04-03T10:21:59;6.30;1.00
10566;DHT22;5331;48.148;16.326;2023-04-03T10:24:36;6.10;1.00
10566;DHT22;5331;48.148;16.326;2023-04-03T10:27:10;6.10;1.00
10566;DHT22;5331;48.148;16.326;2023-04-03T10:29:46;6.20;1.00
10566;DHT22;5331;48.148;16.326;2023-04-03T10:32:31;6.10;1.00
10566;DHT22;5331;48.148;16.326;2023-04-03T10:35:08;5.90;1.00
10566;DHT22;5331;48.148;16.326;2023-04-03T10:37:47;5.80;1.00
10566;DHT22;5331;48.148;16.326;2023-04-03T10:40:24;5.80;1.00
10566;DHT22;5331;48.148;16.326;2023-04-03T10:43:02;6.10;1.00
10566;DHT22;5331;48.148;16.326;2023-04-03T10:45:46;6.10;1.00
10566;DHT22;5331;48.148;16.326;2023-04-03T10:48:20;6.30;1.00
10566;DHT22;5331;48.148;16.326;2023-04-03T10:50:57;6.40;1.00
10566;DHT22;5331;48.148;16.326;2023-04-03T10:53:33;6.30;1.00
10566;DHT22;5331;48.148;16.326;2023-04-03T10:56:07;6.10;1.00
10566;DHT22;5331;48.148;16.326;2023-04-03T10:58:40;6.20;1.00
10566;DHT22;5331;48.148;16.326;2023-04-03T11:01:14;6.30;1.00
10566;DHT22;5331;48.148;16.326;2023-04-03T11:03:45;6.40;1.00
10566;DHT22;5331;48.148;16.326;2023-04-03T11:06:15;6.50;1.00
10566;DHT22;5331;48.148;16.326;2023-04-03T11:08:46;6.50;1.00
10566;DHT22;5331;48.148;16.326;2023-04-03T11:11:17;6.60;1.00
10566;DHT22;5331;48.148;16.326;2023-04-03T11:13:50;6.50;1.00
10566;DHT22;5331;48.148;16.326;2023-04-03T11:16:25;6.60;1.00
10566;DHT22;5331;48.148;16.326;2023-04-03T11:18:56;6.60;1.00
10566;DHT22;5331;48.148;16.326;2023-04-03T11:21:29;6.70;1.00
10566;DHT22;5331;48.148;16.326;2023-04-03T11:24:03;6.80;1.00
10566;DHT22;5331;48.148;16.326;2023-04-03T11:26:35;6.80;1.00
10566;DHT22;5331;48.148;16.326;2023-04-03T11:29:06;6.80;1.00
10566;DHT22;5331;48.148;16.326;2023-04-03T11:31:46;6.80;1.00
10566;DHT22;5331;48.148;16.326;2023-04-03T11:34:27;6.70;1.00
10566;DHT22;5331;48.148;16.326;2023-04-03T11:37:00;6.60;1.00
10566;DHT22;5331;48.148;16.326;2023-04-03T11:39:30;6.40;1.00
10566;DHT22;5331;48.148;16.326;2023-04-03T11:42:14;6.40;1.00
10566;DHT22;5331;48.148;16.326;2023-04-03T11:44:42;6.50;1.00
10566;DHT22;5331;48.148;16.326;2023-04-03T11:47:11;6.60;1.00
10566;DHT22;5331;48.148;16.326;2023-04-03T11:49:59;6.60;1.00
10566;DHT22;5331;48.148;16.326;2023-04-03T11:53:02;6.70;1.00
10566;DHT22;5331;48.148;16.326;2023-04-03T11:55:52;6.60;1.00
10566;DHT22;5331;48.148;16.326;2023-04-03T11:58:21;6.80;1.00
10566;DHT22;5331;48.148;16.326;2023-04-03T12:00:58;7.00;1.00
10566;DHT22;5331;48.148;16.326;2023-04-03T12:04:03;7.10;1.00
10566;DHT22;5331;48.148;16.326;2023-04-03T12:10:01;7.20;1.00
10566;DHT22;5331;48.148;16.326;2023-04-03T12:12:34;7.20;1.00
10566;DHT22;5331;48.148;16.326;2023-04-03T12:18:32;7.10;1.00
10566;DHT22;5331;48.148;16.326;2023-04-03T12:21:08;7.00;1.00
10566;DHT22;5331;48.148;16.326;2023-04-03T12:23:35;6.50;1.00
10566;DHT22;5331;48.148;16.326;2023-04-03T12:26:20;6.40;1.00
10566;DHT22;5331;48.148;16.326;2023-04-03T12:28:48;6.40;1.00
10566;DHT22;5331;48.148;16.326;2023-04-03T12:31:19;6.10;1.00
10566;DHT22;5331;48.148;16.326;2023-04-03T12:34:12;6.10;1.00
10566;DHT22;5331;48.148;16.326;2023-04-03T12:36:50;6.10;1.00
10566;DHT22;5331;48.148;16.326;2023-04-03T12:39:53;6.10;1.00
10566;DHT22;5331;48.148;16.326;2023-04-03T12:42:42;6.10;1.00
10566;DHT22;5331;48.148;16.326;2023-04-03T12:45:17;6.20;1.00
10566;DHT22;5331;48.148;16.326;2023-04-03T12:47:48;6.30;1.00
10566;DHT22;5331;48.148;16.326;2023-04-03T12:50:22;6.30;1.00
10566;DHT22;5331;48.148;16.326;2023-04-03T12:52:56;6.30;1.00
10566;DHT22;5331;48.148;16.326;2023-04-03T12:55:24;6.40;1.00
10566;DHT22;5331;48.148;16.326;2023-04-03T12:57:52;6.40;1.00
10566;DHT22;5331;48.148;16.326;2023-04-03T13:00:28;6.40;1.00
10566;DHT22;5331;48.148;16.326;2023-04-03T13:02:56;6.40;1.00
10566;DHT22;5331;48.148;16.326;2023-04-03T13:05:23;6.40;1.00
10566;DHT22;5331;48.148;16.326;2023-04-03T13:07:58;6.30;1.00
10566;DHT22;5331;48.148;16.326;2023-04-03T13:10:27;6.40;1.00
10566;DHT22;5331;48.148;16.326;2023-04-03T13:12:56;6.60;1.00
10566;DHT22;5331;48.148;16.326;2023-04-03T13:15:25;6.90;1.00
10566;DHT22;5331;48.148;16.326;2023-04-03T13:17:53;7.50;1.00
10566;DHT22;5331;48.148;16.326;2023-04-03T13:20:24;7.60;1.00
10566;DHT22;5331;48.148;16.326;2023-04-03T13:23:00;7.50;1.00
10566;DHT22;5331;48.148;16.326;2023-04-03T13:25:32;7.50;1.00
10566;DHT22;5331;48.148;16.326;2023-04-03T13:28:01;7.40;1.00
10566;DHT22;5331;48.148;16.326;2023-04-03T13:30:30;7.20;1.00
10566;DHT22;5331;48.148;16.326;2023-04-03T13:33:00;7.30;1.00
10566;DHT22;5331;48.148;16.326;2023-04-03T13:35:35;7.20;1.00
10566;DHT22;5331;48.148;16.326;2023-04-03T13:38:06;7.20;1.00
10566;DHT22;5331;48.148;16.326;2023-04-03T13:40:35;7.40;1.00
10566;DHT22;5331;48.148;16.326;2023-04-03T13:43:19;7.60;1.00
10566;DHT22;5331;48.148;16.326;2023-04-03T13:46:01;7.50;1.00
10566;DHT22;5331;48.148;16.326;2023-04-03T13:48:36;7.60;1.00
10566;DHT22;5331;48.148;16.326;2023-04-03T13:51:05;7.50;1.00
10566;DHT22;5331;48.148;16.326;2023-04-03T13:53:43;7.40;1.00
10566;DHT22;5331;48.148;16.326;2023-04-03T13:56:20;7.20;1.00
10566;DHT22;5331;48.148;16.326;2023-04-03T13:59:01;7.20;1.00
10566;DHT22;5331;48.148;16.326;2023-04-03T14:01:39;7.50;1.00
10566;DHT22;5331;48.148;16.326;2023-04-03T14:04:14;7.70;1.00
10566;DHT22;5331;48.148;16.326;2023-04-03T14:06:42;7.60;1.00
10566;DHT22;5331;48.148;16.326;2023-04-03T14:09:11;7.30;1.00
10566;DHT22;5331;48.148;16.326;2023-04-03T14:11:39;7.10;1.00
10566;DHT22;5331;48.148;16.326;2023-04-03T14:14:12;7.10;1.00
10566;DHT22;5331;48.148;16.326;2023-04-03T14:16:42;6.90;1.00
10566;DHT22;5331;48.148;16.326;2023-04-03T14:19:18;6.70;1.00
10566;DHT22;5331;48.148;16.326;2023-04-03T14:21:46;6.60;1.00
10566;DHT22;5331;48.148;16.326;2023-04-03T14:24:14;6.60;1.00
10566;DHT22;5331;48.148;16.326;2023-04-03T14:26:42;6.60;1.00
10566;DHT22;5331;48.148;16.326;2023-04-03T14:29:11;6.80;1.00
10566;DHT22;5331;48.148;16.326;2023-04-03T14:31:39;6.80;1.00
10566;DHT22;5331;48.148;16.326;2023-04-03T14:36:34;6.70;1.00
10566;DHT22;5331;48.148;16.326;2023-04-03T14:39:02;6.70;1.00
10566;DHT22;5331;48.148;16.326;2023-04-03T14:41:31;6.70;1.00
10566;DHT22;5331;48.148;16.326;2023-04-03T14:43:58;6.60;1.00
10566;DHT22;5331;48.148;16.326;2023-04-03T14:46:28;6.50;1.00
10566;DHT22;5331;48.148;16.326;2023-04-03T14:48:56;6.50;1.00
10566;DHT22;5331;48.148;16.326;2023-04-03T14:51:23;6.60;1.00
10566;DHT22;5331;48.148;16.326;2023-04-03T14:53:50;6.60;1.00
10566;DHT22;5331;48.148;16.326;2023-04-03T14:56:19;6.60;1.00
10566;DHT22;5331;48.148;16.326;2023-04-03T14:58:59;6.50;1.00
10566;DHT22;5331;48.148;16.326;2023-04-03T15:01:27;6.40;1.00
10566;DHT22;5331;48.148;16.326;2023-04-03T15:03:54;6.60;1.00
10566;DHT22;5331;48.148;16.326;2023-04-03T15:06:21;6.70;1.00
10566;DHT22;5331;48.148;16.326;2023-04-03T15:08:48;6.70;1.00
10566;DHT22;5331;48.148;16.326;2023-04-03T15:11:15;6.50;1.00
10566;DHT22;5331;48.148;16.326;2023-04-03T15:13:42;6.40;1.00
10566;DHT22;5331;48.148;16.326;2023-04-03T15:16:16;6.40;1.00
10566;DHT22;5331;48.148;16.326;2023-04-03T15:18:44;6.30;1.00
10566;DHT22;5331;48.148;16.326;2023-04-03T15:21:11;6.20;1.00
10566;DHT22;5331;48.148;16.326;2023-04-03T15:23:38;6.20;1.00
10566;DHT22;5331;48.148;16.326;2023-04-03T15:26:06;6.40;1.00
10566;DHT22;5331;48.148;16.326;2023-04-03T15:28:37;6.50;1.00
10566;DHT22;5331;48.148;16.326;2023-04-03T15:31:05;6.50;1.00
10566;DHT22;5331;48.148;16.326;2023-04-03T15:33:35;6.50;1.00
10566;DHT22;5331;48.148;16.326;2023-04-03T15:36:02;6.40;1.00
10566;DHT22;5331;48.148;16.326;2023-04-03T15:38:30;6.30;1.00
10566;DHT22;5331;48.148;16.326;2023-04-03T15:40:57;6.30;1.00
10566;DHT22;5331;48.148;16.326;2023-04-03T15:43:24;6.30;1.00
10566;DHT22;5331;48.148;16.326;2023-04-03T15:45:51;6.40;1.00
10566;DHT22;5331;48.148;16.326;2023-04-03T15:48:18;6.30;1.00
10566;DHT22;5331;48.148;16.326;2023-04-03T15:50:46;6.40;1.00
10566;DHT22;5331;48.148;16.326;2023-04-03T15:53:13;6.30;1.00
10566;DHT22;5331;48.148;16.326;2023-04-03T15:55:42;6.10;1.00
10566;DHT22;5331;48.148;16.326;2023-04-03T15:58:09;6.00;1.00
10566;DHT22;5331;48.148;16.326;2023-04-03T16:00:36;5.90;1.00
10566;DHT22;5331;48.148;16.326;2023-04-03T16:03:06;5.90;1.00
10566;DHT22;5331;48.148;16.326;2023-04-03T16:05:35;5.80;1.00
10566;DHT22;5331;48.148;16.326;2023-04-03T16:08:05;5.80;1.00
10566;DHT22;5331;48.148;16.326;2023-04-03T16:10:33;5.90;1.00
10566;DHT22;5331;48.148;16.326;2023-04-03T16:13:01;5.80;1.00
10566;DHT22;5331;48.148;16.326;2023-04-03T16:15:28;5.80;1.00
10566;DHT22;5331;48.148;16.326;2023-04-03T16:17:56;5.70;1.00
10566;DHT22;5331;48.148;16.326;2023-04-03T16:20:24;5.60;1.00
10566;DHT22;5331;48.148;16.326;2023-04-03T16:22:51;5.60;1.00
10566;DHT22;5331;48.148;16.326;2023-04-03T16:25:21;5.50;1.00
10566;DHT22;5331;48.148;16.326;2023-04-03T16:27:48;5.50;1.00
10566;DHT22;5331;48.148;16.326;2023-04-03T16:30:15;5.50;1.00
10566;DHT22;5331;48.148;16.326;2023-04-03T16:32:42;5.50;1.00